Time;durP1;ratioP1;P1;durP2;ratioP2;P2;SDS_P1;SDS_P2;PMS_P1;PMS_P2;Temp;Humidity;BMP_temperature;BMP_pressure;BME280_temperature;BME280_humidity;BME280_pressure;Samples;Min_cycle;Max_cycle;Signal;HPM_P1;HPM_P2
2021/12/27 00:00:37;;;;;;;;;;;4.50;99.90;;;;;;4992921;28;19913;-79
2021/12/27 00:03:03;;;;;;;;;;;4.40;99.90;;;;;;4994503;28;19916;-78
2021/12/27 00:05:29;;;;;;;;;;;4.40;99.90;;;;;;4995265;28;19906;-78
2021/12/27 00:07:55;;;;;;;;;;;4.40;99.90;;;;;;4980443;28;19909;-79
2021/12/27 00:10:22;;;;;;;;;;;4.50;99.90;;;;;;4997016;28;19905;-78
2021/12/27 00:12:48;;;;;;;;;;;4.50;99.90;;;;;;4996510;28;20299;-80
2021/12/27 00:15:16;;;;;;;;;;;4.60;99.90;;;;;;4996547;28;19912;-81
2021/12/27 00:17:42;;;;;;;;;;;4.60;99.90;;;;;;4997819;28;19918;-84
2021/12/27 00:20:08;;;;;;;;;;;4.60;99.90;;;;;;4997134;28;19910;-78
2021/12/27 00:22:34;;;;;;;;;;;4.60;99.90;;;;;;4980244;28;19916;-78
2021/12/27 00:24:59;;;;;;;;;;;4.60;99.90;;;;;;4980275;28;19953;-79
2021/12/27 00:27:25;;;;;;;;;;;4.50;99.90;;;;;;4997288;28;19921;-78
2021/12/27 00:29:52;;;;;;;;;;;4.50;99.90;;;;;;4996277;28;20366;-79
2021/12/27 00:32:18;;;;;;;;;;;4.50;99.90;;;;;;4980105;28;19910;-78
2021/12/27 00:34:44;;;;;;;;;;;4.50;99.90;;;;;;4997383;28;19913;-82
2021/12/27 00:37:09;;;;;;;;;;;4.50;99.90;;;;;;4980029;28;19963;-80
2021/12/27 00:39:36;;;;;;;;;;;4.50;99.90;;;;;;4995827;28;19931;-78
2021/12/27 00:42:02;;;;;;;;;;;4.60;99.90;;;;;;4997556;28;19929;-79
2021/12/27 00:44:27;;;;;;;;;;;4.60;99.90;;;;;;4996336;28;19917;-78
2021/12/27 00:46:53;;;;;;;;;;;4.70;99.90;;;;;;4997470;28;20370;-79
2021/12/27 00:49:19;;;;;;;;;;;4.60;99.90;;;;;;4997233;28;20008;-78
2021/12/27 00:51:45;;;;;;;;;;;4.60;99.90;;;;;;4995842;28;19941;-83
2021/12/27 00:54:10;;;;;;;;;;;4.60;99.90;;;;;;4996020;28;19910;-78
2021/12/27 00:56:36;;;;;;;;;;;4.60;99.90;;;;;;4995878;28;20011;-77
2021/12/27 00:59:01;;;;;;;;;;;4.60;99.90;;;;;;4979422;28;19924;-78
2021/12/27 01:01:27;;;;;;;;;;;4.60;99.90;;;;;;4997520;28;20338;-77
2021/12/27 01:03:52;;;;;;;;;;;4.60;99.90;;;;;;4997093;28;19954;-78
2021/12/27 01:06:18;;;;;;;;;;;4.60;99.90;;;;;;4995836;28;19989;-79
2021/12/27 01:08:43;;;;;;;;;;;4.50;99.90;;;;;;4996039;28;19917;-78
2021/12/27 01:11:24;;;;;;;;;;;4.50;99.90;;;;;;4997300;28;19912;-78
2021/12/27 01:14:10;;;;;;;;;;;4.50;99.90;;;;;;4997189;28;19944;-79
2021/12/27 01:16:36;;;;;;;;;;;4.50;99.90;;;;;;4995289;28;19910;-78
2021/12/27 01:19:02;;;;;;;;;;;4.60;99.90;;;;;;4978923;28;20279;-78
2021/12/27 01:21:28;;;;;;;;;;;4.60;99.90;;;;;;4995200;28;20265;-78
2021/12/27 01:23:54;;;;;;;;;;;4.50;99.90;;;;;;4978984;28;20052;-78
2021/12/27 01:26:20;;;;;;;;;;;4.60;99.90;;;;;;4996455;28;19905;-77
2021/12/27 01:28:46;;;;;;;;;;;4.70;99.90;;;;;;4995050;28;19997;-77
2021/12/27 01:31:12;;;;;;;;;;;4.70;99.90;;;;;;4994950;28;20012;-78
2021/12/27 01:33:39;;;;;;;;;;;4.60;99.90;;;;;;4995062;28;20286;-78
2021/12/27 01:36:05;;;;;;;;;;;4.60;99.90;;;;;;4994931;28;20377;-78
2021/12/27 01:38:31;;;;;;;;;;;4.60;99.90;;;;;;4996193;28;19921;-78
2021/12/27 01:40:56;;;;;;;;;;;4.60;99.90;;;;;;4996734;28;19913;-79
2021/12/27 01:43:26;;;;;;;;;;;4.60;99.90;;;;;;4994546;28;20000;-79
2021/12/27 01:45:53;;;;;;;;;;;4.60;99.90;;;;;;4994588;28;19906;-83
2021/12/27 01:48:23;;;;;;;;;;;4.70;99.90;;;;;;4996115;28;19905;-79
2021/12/27 01:50:50;;;;;;;;;;;4.70;99.90;;;;;;4996752;28;19910;-80
2021/12/27 01:53:16;;;;;;;;;;;4.70;99.90;;;;;;4994999;28;19916;-79
2021/12/27 01:55:43;;;;;;;;;;;4.70;99.90;;;;;;4996014;28;19956;-77
2021/12/27 01:58:09;;;;;;;;;;;4.70;99.90;;;;;;4994602;28;19922;-78
2021/12/27 02:00:35;;;;;;;;;;;4.70;99.90;;;;;;4994604;28;19913;-78
2021/12/27 02:03:03;;;;;;;;;;;4.80;99.90;;;;;;4978115;28;19967;-79
2021/12/27 02:05:29;;;;;;;;;;;4.70;99.90;;;;;;4995955;28;20425;-79
2021/12/27 02:07:54;;;;;;;;;;;4.70;99.90;;;;;;4995837;28;20028;-84
2021/12/27 02:10:20;;;;;;;;;;;4.70;99.90;;;;;;4994328;28;20373;-78
2021/12/27 02:12:45;;;;;;;;;;;4.70;99.90;;;;;;4994255;28;20385;-80
2021/12/27 02:15:12;;;;;;;;;;;4.70;99.90;;;;;;4995579;28;19913;-79
2021/12/27 02:17:38;;;;;;;;;;;4.70;99.90;;;;;;4978880;28;20378;-78
2021/12/27 02:20:08;;;;;;;;;;;4.60;99.90;;;;;;4993740;28;19996;-83
2021/12/27 02:22:36;;;;;;;;;;;4.70;99.90;;;;;;4994118;28;19910;-79
2021/12/27 02:25:05;;;;;;;;;;;4.70;99.90;;;;;;4978500;28;19916;-79
2021/12/27 02:27:31;;;;;;;;;;;4.70;99.90;;;;;;4993609;28;19914;-79
2021/12/27 02:29:58;;;;;;;;;;;4.80;99.90;;;;;;4995488;28;19910;-85
2021/12/27 02:32:23;;;;;;;;;;;4.80;99.90;;;;;;4977839;28;19909;-78
2021/12/27 02:34:49;;;;;;;;;;;4.80;99.90;;;;;;4977846;28;20224;-79
2021/12/27 02:37:14;;;;;;;;;;;4.80;99.90;;;;;;4993985;28;20343;-78
2021/12/27 02:39:40;;;;;;;;;;;4.90;99.90;;;;;;4977664;28;19960;-78
2021/12/27 02:42:06;;;;;;;;;;;4.90;99.90;;;;;;4977340;28;19921;-78
2021/12/27 02:44:33;;;;;;;;;;;4.90;99.90;;;;;;4995523;28;20346;-79
2021/12/27 02:46:59;;;;;;;;;;;4.90;99.90;;;;;;4994693;28;19906;-80
2021/12/27 02:49:24;;;;;;;;;;;5.00;99.90;;;;;;4977500;28;19961;-80
2021/12/27 02:51:50;;;;;;;;;;;5.00;99.90;;;;;;4977663;28;20016;-79
2021/12/27 02:54:16;;;;;;;;;;;5.00;99.90;;;;;;4977386;28;20381;-79
2021/12/27 02:56:41;;;;;;;;;;;5.00;99.90;;;;;;4993884;28;19909;-78
2021/12/27 02:59:07;;;;;;;;;;;5.10;99.90;;;;;;4995217;28;19913;-78
2021/12/27 03:01:32;;;;;;;;;;;5.10;99.90;;;;;;4995413;28;19906;-78
2021/12/27 03:03:58;;;;;;;;;;;5.10;99.90;;;;;;4996681;28;19933;-78
2021/12/27 03:06:23;;;;;;;;;;;5.10;99.90;;;;;;4994855;28;19910;-79
2021/12/27 03:08:49;;;;;;;;;;;5.10;99.90;;;;;;4993772;28;19997;-80
2021/12/27 03:11:16;;;;;;;;;;;5.10;99.90;;;;;;4995253;28;20357;-79
2021/12/27 03:13:46;;;;;;;;;;;5.10;99.90;;;;;;4994774;28;19910;-78
2021/12/27 03:16:13;;;;;;;;;;;5.20;99.90;;;;;;4994596;28;19906;-79
2021/12/27 03:18:41;;;;;;;;;;;5.20;99.90;;;;;;4993372;28;20346;-79
2021/12/27 03:21:07;;;;;;;;;;;5.20;99.90;;;;;;4993341;28;19914;-78
2021/12/27 03:23:33;;;;;;;;;;;5.20;99.90;;;;;;4994767;28;19913;-79
2021/12/27 03:25:58;;;;;;;;;;;5.10;99.90;;;;;;4995005;28;19906;-79
2021/12/27 03:28:25;;;;;;;;;;;5.10;99.90;;;;;;4993853;28;19905;-79
2021/12/27 03:30:50;;;;;;;;;;;5.10;99.90;;;;;;4993572;28;19981;-79
2021/12/27 03:33:17;;;;;;;;;;;5.10;99.90;;;;;;4993126;28;19921;-79
2021/12/27 03:35:51;;;;;;;;;;;5.10;99.90;;;;;;4993486;28;19913;-79
2021/12/27 03:38:17;;;;;;;;;;;5.10;99.90;;;;;;4993176;28;19960;-78
2021/12/27 03:40:44;;;;;;;;;;;5.20;99.90;;;;;;4997489;28;19941;-79
2021/12/27 03:43:10;;;;;;;;;;;5.20;99.90;;;;;;4998732;28;19921;-78
2021/12/27 03:45:37;;;;;;;;;;;5.20;99.90;;;;;;4998312;28;20341;-79
2021/12/27 03:48:03;;;;;;;;;;;5.20;99.90;;;;;;4997097;28;19989;-77
2021/12/27 03:50:29;;;;;;;;;;;5.30;99.90;;;;;;4997062;28;19916;-80
2021/12/27 03:52:55;;;;;;;;;;;5.20;99.90;;;;;;4997124;28;19909;-78
2021/12/27 03:55:22;;;;;;;;;;;5.30;99.90;;;;;;4997169;28;20274;-79
2021/12/27 03:58:04;;;;;;;;;;;5.30;99.90;;;;;;4996849;28;19972;-79
2021/12/27 04:00:47;;;;;;;;;;;5.30;99.90;;;;;;4996884;28;19953;-79
2021/12/27 04:03:13;;;;;;;;;;;5.30;99.90;;;;;;4998904;28;20365;-79
2021/12/27 04:05:39;;;;;;;;;;;5.40;99.90;;;;;;4980930;28;19936;-78
2021/12/27 04:08:09;;;;;;;;;;;5.40;99.90;;;;;;4981002;28;19917;-79
2021/12/27 04:10:35;;;;;;;;;;;5.50;99.90;;;;;;4997355;28;19905;-79
2021/12/27 04:13:01;;;;;;;;;;;5.60;99.90;;;;;;4997465;28;19972;-79
2021/12/27 04:15:26;;;;;;;;;;;5.60;99.90;;;;;;4996855;28;20390;-79
2021/12/27 04:17:52;;;;;;;;;;;5.50;99.90;;;;;;4980216;28;19918;-78
2021/12/27 04:20:18;;;;;;;;;;;5.50;99.90;;;;;;4997221;28;20362;-79
2021/12/27 04:22:44;;;;;;;;;;;5.60;99.90;;;;;;4980294;28;19910;-80
2021/12/27 04:25:09;;;;;;;;;;;5.50;99.90;;;;;;4997881;28;20020;-83
2021/12/27 04:27:35;;;;;;;;;;;5.50;99.90;;;;;;4997185;28;19917;-78
2021/12/27 04:30:00;;;;;;;;;;;5.50;99.90;;;;;;4996003;28;19909;-78
2021/12/27 04:32:26;;;;;;;;;;;5.50;99.90;;;;;;4996081;28;20298;-79
2021/12/27 04:34:52;;;;;;;;;;;5.50;99.90;;;;;;4996619;28;19974;-79
2021/12/27 04:37:18;;;;;;;;;;;5.60;99.90;;;;;;4995993;28;19948;-79
2021/12/27 04:39:44;;;;;;;;;;;5.50;99.90;;;;;;4997632;28;19905;-80
2021/12/27 04:42:09;;;;;;;;;;;5.50;99.90;;;;;;4997735;28;19929;-79
2021/12/27 04:44:35;;;;;;;;;;;5.50;99.90;;;;;;4995903;28;20333;-80
2021/12/27 04:47:00;;;;;;;;;;;5.50;99.90;;;;;;4979744;28;19914;-80
2021/12/27 04:49:26;;;;;;;;;;;5.50;99.90;;;;;;4996905;28;19909;-79
2021/12/27 04:51:51;;;;;;;;;;;5.60;99.90;;;;;;4994947;28;19955;-79
2021/12/27 04:54:17;;;;;;;;;;;5.60;99.90;;;;;;4997031;28;19906;-85
2021/12/27 04:56:43;;;;;;;;;;;5.50;99.90;;;;;;4995656;28;19913;-80
2021/12/27 04:59:08;;;;;;;;;;;5.50;99.90;;;;;;4997025;28;19924;-79
2021/12/27 05:01:34;;;;;;;;;;;5.50;99.90;;;;;;4979321;28;19912;-79
2021/12/27 05:03:59;;;;;;;;;;;5.50;99.90;;;;;;4995490;28;20004;-78
2021/12/27 05:06:27;;;;;;;;;;;5.50;99.90;;;;;;4996851;28;19909;-78
2021/12/27 05:08:53;;;;;;;;;;;5.50;99.90;;;;;;4995600;28;20016;-78
2021/12/27 05:11:19;;;;;;;;;;;5.50;99.90;;;;;;4995425;28;19913;-81
2021/12/27 05:13:45;;;;;;;;;;;5.50;99.90;;;;;;4995940;28;19905;-79
2021/12/27 05:16:10;;;;;;;;;;;5.50;99.90;;;;;;4995721;28;20360;-78
2021/12/27 05:18:36;;;;;;;;;;;5.50;99.90;;;;;;4995862;28;20013;-80
2021/12/27 05:21:01;;;;;;;;;;;5.60;99.90;;;;;;4996969;28;19993;-79
2021/12/27 05:23:27;;;;;;;;;;;5.60;99.90;;;;;;4996714;28;19912;-79
2021/12/27 05:25:52;;;;;;;;;;;5.50;99.90;;;;;;4996830;28;20318;-78
2021/12/27 05:28:18;;;;;;;;;;;5.50;99.90;;;;;;4979633;28;19918;-86
2021/12/27 05:30:47;;;;;;;;;;;5.50;99.90;;;;;;4980220;28;19932;-80
2021/12/27 05:33:13;;;;;;;;;;;5.50;99.90;;;;;;4979385;28;19932;-78
2021/12/27 05:35:39;;;;;;;;;;;5.50;99.90;;;;;;4979616;28;20298;-78
2021/12/27 05:38:04;;;;;;;;;;;5.50;99.90;;;;;;4995072;28;19936;-79
2021/12/27 05:40:30;;;;;;;;;;;5.60;99.90;;;;;;4997363;28;19906;-80
2021/12/27 05:42:55;;;;;;;;;;;5.70;99.90;;;;;;4995008;28;19922;-79
2021/12/27 05:45:21;;;;;;;;;;;5.70;99.90;;;;;;4978900;28;19916;-84
2021/12/27 05:47:47;;;;;;;;;;;5.70;99.90;;;;;;4994958;28;19927;-78
2021/12/27 05:50:13;;;;;;;;;;;5.70;99.90;;;;;;4995134;28;19912;-79
2021/12/27 05:52:39;;;;;;;;;;;5.70;99.90;;;;;;4995439;28;19906;-79
2021/12/27 05:55:06;;;;;;;;;;;5.70;99.90;;;;;;4995171;28;20066;-79
2021/12/27 05:57:32;;;;;;;;;;;5.60;99.90;;;;;;4994928;28;19913;-79
2021/12/27 05:59:57;;;;;;;;;;;5.70;99.90;;;;;;4978739;28;19916;-79
2021/12/27 06:02:23;;;;;;;;;;;5.70;99.90;;;;;;4994892;28;20290;-83
2021/12/27 06:04:49;;;;;;;;;;;5.70;99.90;;;;;;4994929;28;20386;-78
2021/12/27 06:07:14;;;;;;;;;;;5.70;99.90;;;;;;4994843;28;19917;-79
2021/12/27 06:09:40;;;;;;;;;;;5.70;99.90;;;;;;4994718;28;20001;-78
2021/12/27 06:12:05;;;;;;;;;;;5.80;99.90;;;;;;4978274;28;20374;-79
2021/12/27 06:14:31;;;;;;;;;;;5.80;99.90;;;;;;4978997;28;19928;-77
2021/12/27 06:16:57;;;;;;;;;;;5.80;99.90;;;;;;4994784;28;19906;-78
2021/12/27 06:19:22;;;;;;;;;;;5.80;99.90;;;;;;4994020;28;19948;-82
2021/12/27 06:21:48;;;;;;;;;;;5.80;99.90;;;;;;4978493;28;19910;-79
2021/12/27 06:24:13;;;;;;;;;;;5.80;99.90;;;;;;4994377;28;20247;-79
2021/12/27 06:26:39;;;;;;;;;;;5.80;99.90;;;;;;4995210;28;19909;-80
2021/12/27 06:29:04;;;;;;;;;;;5.80;99.90;;;;;;4978253;28;19996;-79
2021/12/27 06:31:30;;;;;;;;;;;5.80;99.90;;;;;;4994745;28;19906;-79
2021/12/27 06:33:55;;;;;;;;;;;5.90;99.90;;;;;;4995423;28;19913;-79
2021/12/27 06:36:21;;;;;;;;;;;5.90;99.90;;;;;;4977939;28;19909;-79
2021/12/27 06:38:47;;;;;;;;;;;5.90;99.90;;;;;;4994746;28;19917;-79
2021/12/27 06:41:12;;;;;;;;;;;5.90;99.90;;;;;;4978141;28;20432;-80
2021/12/27 06:43:38;;;;;;;;;;;5.90;99.90;;;;;;4977973;28;20386;-79
2021/12/27 06:46:03;;;;;;;;;;;5.90;99.90;;;;;;4994237;28;20346;-79
2021/12/27 06:48:29;;;;;;;;;;;5.90;99.90;;;;;;4994228;28;19910;-80
2021/12/27 06:50:54;;;;;;;;;;;5.80;99.90;;;;;;4993548;28;19905;-79
2021/12/27 06:53:20;;;;;;;;;;;5.80;99.90;;;;;;4994067;28;19960;-79
2021/12/27 06:55:46;;;;;;;;;;;5.70;99.90;;;;;;4993869;28;19996;-79
2021/12/27 06:58:12;;;;;;;;;;;5.70;99.90;;;;;;4993364;28;19913;-79
2021/12/27 07:00:38;;;;;;;;;;;5.80;99.90;;;;;;4995285;28;19909;-78
2021/12/27 07:03:04;;;;;;;;;;;5.90;99.90;;;;;;4994096;28;19906;-79
2021/12/27 07:05:29;;;;;;;;;;;5.90;99.90;;;;;;4993714;28;20000;-82
2021/12/27 07:07:55;;;;;;;;;;;5.90;99.90;;;;;;4994332;28;20251;-79
2021/12/27 07:10:22;;;;;;;;;;;5.90;99.90;;;;;;4994227;28;20085;-78
2021/12/27 07:12:48;;;;;;;;;;;5.90;99.90;;;;;;4993868;28;19954;-79
2021/12/27 07:15:13;;;;;;;;;;;5.90;99.90;;;;;;4993915;28;19906;-79
2021/12/27 07:17:39;;;;;;;;;;;6.00;99.90;;;;;;4995492;28;19913;-79
2021/12/27 07:20:05;;;;;;;;;;;6.00;99.90;;;;;;4994689;28;19910;-79
2021/12/27 07:22:31;;;;;;;;;;;6.00;99.90;;;;;;4995323;28;19953;-83
2021/12/27 07:24:56;;;;;;;;;;;6.10;99.90;;;;;;4994151;28;19988;-79
2021/12/27 07:27:22;;;;;;;;;;;6.10;99.90;;;;;;4994343;28;20260;-79
2021/12/27 07:29:48;;;;;;;;;;;6.10;99.90;;;;;;4977520;28;20331;-79
2021/12/27 07:32:13;;;;;;;;;;;6.10;99.90;;;;;;4993044;28;19947;-79
2021/12/27 07:34:39;;;;;;;;;;;6.10;99.90;;;;;;4994196;28;19909;-79
2021/12/27 07:37:05;;;;;;;;;;;6.10;99.90;;;;;;4993050;28;20000;-79
2021/12/27 07:39:31;;;;;;;;;;;6.00;99.90;;;;;;4994353;28;19984;-83
2021/12/27 07:41:56;;;;;;;;;;;6.00;99.90;;;;;;4976927;28;19921;-80
2021/12/27 07:44:22;;;;;;;;;;;5.90;99.90;;;;;;4977107;28;19928;-79
2021/12/27 07:46:47;;;;;;;;;;;5.80;99.90;;;;;;4993189;28;19917;-80
2021/12/27 07:49:14;;;;;;;;;;;5.70;99.90;;;;;;4992961;28;19917;-80
2021/12/27 07:51:40;;;;;;;;;;;5.60;99.90;;;;;;4993073;28;19999;-83
2021/12/27 07:54:05;;;;;;;;;;;5.50;99.90;;;;;;4993135;28;19909;-80
2021/12/27 07:56:31;;;;;;;;;;;5.50;99.90;;;;;;4993265;28;20072;-83
2021/12/27 07:59:00;;;;;;;;;;;5.40;99.90;;;;;;4994245;28;19913;-80
2021/12/27 08:01:26;;;;;;;;;;;5.50;99.90;;;;;;4993643;28;19909;-80
2021/12/27 08:03:53;;;;;;;;;;;5.50;99.90;;;;;;4993639;28;19912;-80
2021/12/27 08:06:18;;;;;;;;;;;5.50;99.90;;;;;;4977081;28;19910;-79
2021/12/27 08:08:44;;;;;;;;;;;5.80;99.90;;;;;;4976279;28;19917;-79
2021/12/27 08:11:09;;;;;;;;;;;6.00;99.90;;;;;;4977000;28;19956;-81
2021/12/27 08:13:37;;;;;;;;;;;6.40;99.90;;;;;;4993052;28;20339;-84
2021/12/27 08:16:03;;;;;;;;;;;6.50;99.90;;;;;;4977771;28;19909;-78
2021/12/27 08:18:29;;;;;;;;;;;6.50;99.90;;;;;;4976808;28;19917;-78
2021/12/27 08:20:55;;;;;;;;;;;6.40;99.90;;;;;;4993488;28;20005;-80
2021/12/27 08:23:21;;;;;;;;;;;6.40;99.90;;;;;;4977660;28;19910;-81
2021/12/27 08:25:46;;;;;;;;;;;6.30;99.90;;;;;;4993289;28;19910;-79
2021/12/27 08:28:12;;;;;;;;;;;6.30;99.90;;;;;;4980966;28;19910;-79
2021/12/27 08:30:37;;;;;;;;;;;6.30;99.90;;;;;;4996806;28;19910;-85
2021/12/27 08:33:03;;;;;;;;;;;6.30;99.90;;;;;;4980564;28;19917;-78
2021/12/27 08:35:29;;;;;;;;;;;6.10;99.90;;;;;;4996375;28;20375;-78
2021/12/27 08:37:54;;;;;;;;;;;6.10;99.90;;;;;;4980323;28;20020;-79
2021/12/27 08:40:20;;;;;;;;;;;6.10;99.90;;;;;;4981085;28;19961;-79
2021/12/27 08:42:45;;;;;;;;;;;6.20;99.90;;;;;;4999404;28;20362;-79
2021/12/27 08:45:11;;;;;;;;;;;6.10;99.90;;;;;;4998727;28;20289;-79
2021/12/27 08:47:37;;;;;;;;;;;6.20;99.90;;;;;;4997714;28;20258;-83
2021/12/27 08:50:03;;;;;;;;;;;6.20;99.90;;;;;;4998152;28;19906;-79
2021/12/27 08:52:30;;;;;;;;;;;6.20;99.90;;;;;;5002588;28;19996;-79
2021/12/27 08:54:55;;;;;;;;;;;6.20;99.90;;;;;;5005176;28;19913;-77
2021/12/27 08:57:21;;;;;;;;;;;6.20;99.90;;;;;;5003774;28;19918;-79
2021/12/27 08:59:47;;;;;;;;;;;6.20;99.90;;;;;;5000906;28;20346;-79
2021/12/27 09:02:12;;;;;;;;;;;6.20;99.90;;;;;;5000877;28;19910;-82
2021/12/27 09:04:38;;;;;;;;;;;6.30;99.90;;;;;;4983655;28;20277;-84
2021/12/27 09:07:04;;;;;;;;;;;6.40;99.90;;;;;;4996410;28;20394;-80
2021/12/27 09:09:29;;;;;;;;;;;6.50;99.90;;;;;;5000223;28;20254;-79
2021/12/27 09:11:55;;;;;;;;;;;6.50;99.90;;;;;;5000610;28;19949;-84
2021/12/27 09:14:20;;;;;;;;;;;6.50;99.90;;;;;;4981601;28;19916;-80
2021/12/27 09:16:46;;;;;;;;;;;6.70;99.90;;;;;;4997367;28;19917;-80
2021/12/27 09:19:12;;;;;;;;;;;6.90;99.90;;;;;;5006506;28;19920;-79
2021/12/27 09:21:38;;;;;;;;;;;6.90;99.90;;;;;;5010469;28;19905;-79
2021/12/27 09:24:04;;;;;;;;;;;6.90;99.90;;;;;;5006784;28;20002;-79
2021/12/27 09:26:30;;;;;;;;;;;6.80;99.90;;;;;;4998625;28;19949;-79
2021/12/27 09:28:57;;;;;;;;;;;6.80;99.90;;;;;;4996719;28;20255;-79
2021/12/27 09:31:23;;;;;;;;;;;6.70;99.90;;;;;;4996119;28;19988;-79
2021/12/27 09:33:49;;;;;;;;;;;6.80;99.90;;;;;;4995224;28;19941;-79
2021/12/27 09:36:14;;;;;;;;;;;6.80;99.90;;;;;;4995194;28;20412;-79
2021/12/27 09:38:40;;;;;;;;;;;6.80;99.90;;;;;;4978359;28;19918;-78
2021/12/27 09:41:05;;;;;;;;;;;6.90;99.90;;;;;;4995301;28;19925;-79
2021/12/27 09:43:31;;;;;;;;;;;6.90;99.90;;;;;;4994941;28;19921;-78
2021/12/27 09:45:56;;;;;;;;;;;7.00;99.90;;;;;;4995706;28;19937;-80
2021/12/27 09:48:22;;;;;;;;;;;7.00;99.90;;;;;;4994929;28;19953;-79
2021/12/27 09:50:49;;;;;;;;;;;7.10;99.90;;;;;;4994840;28;19912;-79
2021/12/27 09:53:15;;;;;;;;;;;7.20;99.90;;;;;;4995025;28;19960;-79
2021/12/27 09:55:41;;;;;;;;;;;7.40;99.90;;;;;;4994645;28;19913;-79
2021/12/27 09:58:06;;;;;;;;;;;7.70;99.90;;;;;;4994472;28;20358;-78
2021/12/27 10:00:33;;;;;;;;;;;7.70;99.90;;;;;;4994641;28;19905;-79
2021/12/27 10:02:58;;;;;;;;;;;8.00;99.90;;;;;;4994765;28;19962;-80
2021/12/27 10:05:26;;;;;;;;;;;8.60;99.90;;;;;;4978416;28;19960;-78
2021/12/27 10:07:52;;;;;;;;;;;9.10;99.90;;;;;;4995814;28;19913;-78
2021/12/27 10:10:18;;;;;;;;;;;9.10;99.90;;;;;;4994319;28;19905;-78
2021/12/27 10:12:43;;;;;;;;;;;8.90;99.70;;;;;;4995609;28;19912;-78
2021/12/27 10:15:10;;;;;;;;;;;8.80;99.90;;;;;;4995538;28;19993;-78
2021/12/27 10:17:37;;;;;;;;;;;8.70;99.90;;;;;;4994773;28;19921;-78
2021/12/27 10:20:16;;;;;;;;;;;8.70;99.90;;;;;;4995236;28;19909;-79
2021/12/27 10:22:43;;;;;;;;;;;8.70;99.90;;;;;;4994049;28;19906;-78
2021/12/27 10:25:12;;;;;;;;;;;8.60;99.90;;;;;;4994180;28;19909;-77
2021/12/27 10:27:38;;;;;;;;;;;8.60;99.90;;;;;;4995376;28;19906;-79
2021/12/27 10:30:30;;;;;;;;;;;8.70;99.90;;;;;;4995146;28;20005;-78
2021/12/27 10:33:04;;;;;;;;;;;8.70;99.90;;;;;;4992207;28;19918;-78
2021/12/27 10:35:38;;;;;;;;;;;8.50;99.90;;;;;;4993828;28;19912;-79
2021/12/27 10:38:13;;;;;;;;;;;8.20;99.90;;;;;;4995033;28;19913;-78
2021/12/27 10:40:47;;;;;;;;;;;8.00;99.90;;;;;;4993730;28;19921;-78
2021/12/27 10:43:12;;;;;;;;;;;7.90;99.90;;;;;;4995207;28;19917;-78
2021/12/27 10:45:38;;;;;;;;;;;7.90;99.90;;;;;;4994777;28;20326;-78
2021/12/27 10:48:04;;;;;;;;;;;7.80;99.90;;;;;;4977916;28;19913;-77
2021/12/27 10:50:35;;;;;;;;;;;7.80;99.90;;;;;;4993010;28;19916;-78
2021/12/27 10:53:00;;;;;;;;;;;7.70;99.90;;;;;;4978046;28;19910;-78
2021/12/27 10:55:39;;;;;;;;;;;7.80;99.90;;;;;;4995275;28;19964;-78
2021/12/27 10:58:10;;;;;;;;;;;7.70;99.90;;;;;;4994262;28;19932;-78
2021/12/27 11:00:36;;;;;;;;;;;7.70;99.90;;;;;;4995402;28;19914;-79
2021/12/27 11:03:02;;;;;;;;;;;7.70;99.90;;;;;;4997074;28;20412;-80
2021/12/27 11:05:29;;;;;;;;;;;7.70;99.90;;;;;;4996434;28;20017;-79
2021/12/27 11:07:59;;;;;;;;;;;7.70;99.90;;;;;;4995542;28;20347;-79
2021/12/27 11:10:25;;;;;;;;;;;7.80;99.90;;;;;;4997626;28;19906;-79
2021/12/27 11:12:50;;;;;;;;;;;7.80;99.90;;;;;;4998440;28;20001;-79
2021/12/27 11:15:16;;;;;;;;;;;7.90;99.90;;;;;;4995341;28;19910;-79
2021/12/27 11:17:42;;;;;;;;;;;8.00;99.90;;;;;;4995826;28;20037;-80
2021/12/27 11:20:09;;;;;;;;;;;8.00;99.90;;;;;;4997986;28;19913;-79
2021/12/27 11:22:39;;;;;;;;;;;8.10;99.90;;;;;;4997596;28;20000;-80
2021/12/27 11:25:06;;;;;;;;;;;8.00;99.90;;;;;;4998721;28;19917;-80
2021/12/27 11:27:35;;;;;;;;;;;8.00;99.90;;;;;;5002229;28;19928;-81
2021/12/27 11:30:05;;;;;;;;;;;7.90;99.90;;;;;;5003500;28;19910;-79
2021/12/27 11:32:31;;;;;;;;;;;8.00;99.90;;;;;;5004497;28;19905;-80
2021/12/27 11:34:58;;;;;;;;;;;8.00;99.90;;;;;;5009435;28;20004;-88
2021/12/27 11:37:43;;;;;;;;;;;8.00;99.90;;;;;;5009742;28;19913;-87
2021/12/27 11:40:11;;;;;;;;;;;8.10;99.90;;;;;;4994617;28;19920;-78
2021/12/27 11:42:56;;;;;;;;;;;8.20;99.90;;;;;;5008068;28;20337;-82
2021/12/27 11:45:43;;;;;;;;;;;8.20;99.90;;;;;;4997050;28;19906;-82
2021/12/27 11:48:13;;;;;;;;;;;8.20;99.90;;;;;;4994710;28;19933;-83
2021/12/27 11:50:57;;;;;;;;;;;8.20;99.90;;;;;;4994657;28;19906;-80
2021/12/27 11:53:31;;;;;;;;;;;8.30;99.90;;;;;;4995713;28;19912;-79
2021/12/27 11:55:57;;;;;;;;;;;8.30;99.90;;;;;;4994619;28;19906;-82
2021/12/27 11:58:35;;;;;;;;;;;8.30;99.90;;;;;;4995335;28;19909;-78
2021/12/27 12:01:02;;;;;;;;;;;8.30;99.90;;;;;;4997656;28;19909;-81
2021/12/27 12:03:35;;;;;;;;;;;8.40;99.90;;;;;;4999466;28;19945;-81
2021/12/27 12:06:01;;;;;;;;;;;8.50;99.90;;;;;;5000952;28;20385;-81
2021/12/27 12:08:27;;;;;;;;;;;8.50;99.90;;;;;;4999696;28;19906;-79
2021/12/27 12:11:04;;;;;;;;;;;8.50;99.90;;;;;;4999367;28;19913;-79
2021/12/27 12:13:36;;;;;;;;;;;8.50;99.90;;;;;;4999791;28;20000;-80
2021/12/27 12:16:04;;;;;;;;;;;8.60;99.90;;;;;;4999500;28;19906;-84
2021/12/27 12:18:30;;;;;;;;;;;8.60;99.90;;;;;;4999178;28;20310;-81
2021/12/27 12:20:57;;;;;;;;;;;8.50;99.90;;;;;;4999604;28;19925;-80
2021/12/27 12:23:23;;;;;;;;;;;8.60;99.90;;;;;;5000434;28;19912;-79
2021/12/27 12:25:56;;;;;;;;;;;8.60;99.90;;;;;;4999071;28;19992;-81
2021/12/27 12:28:21;;;;;;;;;;;8.60;99.90;;;;;;4999125;28;19902;-80
2021/12/27 12:30:48;;;;;;;;;;;8.70;99.90;;;;;;4999819;28;20317;-80
2021/12/27 12:33:15;;;;;;;;;;;8.80;99.90;;;;;;4999031;28;19988;-80
2021/12/27 12:35:41;;;;;;;;;;;8.90;99.90;;;;;;4997545;28;19913;-80
2021/12/27 12:38:11;;;;;;;;;;;9.00;99.90;;;;;;4999043;28;19928;-80
2021/12/27 12:40:36;;;;;;;;;;;9.00;99.90;;;;;;4997597;28;19994;-80
2021/12/27 12:43:02;;;;;;;;;;;9.10;99.90;;;;;;4996866;28;19924;-83
2021/12/27 12:45:32;;;;;;;;;;;9.10;99.90;;;;;;4997458;28;19910;-80
2021/12/27 12:47:58;;;;;;;;;;;9.00;99.90;;;;;;4997583;28;19906;-80
2021/12/27 12:50:23;;;;;;;;;;;9.00;99.90;;;;;;4982399;28;19910;-80
2021/12/27 12:52:59;;;;;;;;;;;9.00;99.90;;;;;;4998101;28;19963;-79
2021/12/27 12:55:27;;;;;;;;;;;8.90;99.90;;;;;;4999646;28;19948;-78
2021/12/27 12:57:52;;;;;;;;;;;8.90;99.90;;;;;;4997844;28;20001;-79
2021/12/27 13:00:22;;;;;;;;;;;8.90;99.90;;;;;;5000061;28;19969;-80
2021/12/27 13:02:47;;;;;;;;;;;9.00;99.90;;;;;;4999966;28;19910;-80
2021/12/27 13:05:15;;;;;;;;;;;9.00;99.90;;;;;;4984493;28;19981;-80
2021/12/27 13:07:46;;;;;;;;;;;9.10;99.90;;;;;;5000412;28;19910;-81
2021/12/27 13:10:29;;;;;;;;;;;9.10;99.90;;;;;;4997578;28;19914;-80
2021/12/27 13:12:56;;;;;;;;;;;9.20;99.90;;;;;;4996494;28;19905;-79
2021/12/27 13:15:24;;;;;;;;;;;9.20;99.90;;;;;;4997428;28;19913;-81
2021/12/27 13:18:03;;;;;;;;;;;9.10;99.90;;;;;;4996848;28;20334;-79
2021/12/27 13:20:29;;;;;;;;;;;9.10;99.90;;;;;;4998382;28;19905;-80
2021/12/27 13:22:56;;;;;;;;;;;9.10;99.90;;;;;;4997297;28;19913;-81
2021/12/27 13:25:36;;;;;;;;;;;9.20;99.90;;;;;;4978951;28;19980;-80
2021/12/27 13:28:05;;;;;;;;;;;9.20;99.90;;;;;;4995493;28;19905;-80
2021/12/27 13:30:31;;;;;;;;;;;9.20;99.90;;;;;;4996587;28;19906;-79
2021/12/27 13:32:56;;;;;;;;;;;9.20;99.90;;;;;;4994925;28;20044;-79
2021/12/27 13:35:22;;;;;;;;;;;9.30;99.90;;;;;;4978722;28;19921;-80
2021/12/27 13:37:47;;;;;;;;;;;9.30;99.90;;;;;;4996300;28;19910;-80
2021/12/27 13:40:17;;;;;;;;;;;9.20;99.90;;;;;;4995867;28;19910;-80
2021/12/27 13:42:43;;;;;;;;;;;9.20;99.90;;;;;;4994925;28;19971;-81
2021/12/27 13:45:13;;;;;;;;;;;9.20;99.90;;;;;;4996634;28;19913;-79
2021/12/27 13:47:48;;;;;;;;;;;9.20;99.90;;;;;;4997886;28;19992;-80
2021/12/27 13:50:14;;;;;;;;;;;9.20;99.90;;;;;;4995960;28;19912;-81
2021/12/27 13:52:44;;;;;;;;;;;9.30;99.90;;;;;;4979449;28;19910;-81
2021/12/27 13:55:19;;;;;;;;;;;9.20;99.90;;;;;;4996696;28;20417;-80
2021/12/27 13:57:44;;;;;;;;;;;9.20;99.90;;;;;;4996053;28;20028;-81
2021/12/27 14:00:10;;;;;;;;;;;9.20;99.90;;;;;;4980106;28;20370;-80
2021/12/27 14:02:41;;;;;;;;;;;9.20;99.90;;;;;;4995898;28;20231;-82
2021/12/27 14:05:07;;;;;;;;;;;9.20;99.90;;;;;;4996498;28;19906;-81
2021/12/27 14:07:33;;;;;;;;;;;9.20;99.90;;;;;;4978382;28;19965;-80
2021/12/27 14:09:58;;;;;;;;;;;9.20;99.90;;;;;;4994463;28;20292;-80
2021/12/27 14:12:26;;;;;;;;;;;9.20;99.90;;;;;;4994108;28;19913;-79
2021/12/27 14:14:52;;;;;;;;;;;9.20;99.90;;;;;;4994333;28;19918;-80
2021/12/27 14:17:19;;;;;;;;;;;9.20;99.90;;;;;;4995403;28;19909;-81
2021/12/27 14:19:45;;;;;;;;;;;9.10;99.90;;;;;;4994209;28;19944;-81
2021/12/27 14:22:15;;;;;;;;;;;9.10;99.90;;;;;;4978007;28;19910;-81
2021/12/27 14:24:43;;;;;;;;;;;9.10;99.90;;;;;;4993260;28;20021;-80
2021/12/27 14:27:17;;;;;;;;;;;9.10;99.90;;;;;;4995337;28;19916;-80
2021/12/27 14:29:42;;;;;;;;;;;9.00;99.90;;;;;;4994448;28;19990;-81